createdAt,value
2023-05-19T00:00:58.899Z,0.00
2023-05-19T00:01:58.933Z,0.00
2023-05-19T00:02:58.920Z,0.00
2023-05-19T00:03:58.876Z,0.00
2023-05-19T00:04:58.867Z,0.00
2023-05-19T00:05:58.983Z,0.00
2023-05-19T00:06:58.867Z,0.00
2023-05-19T00:07:58.866Z,0.00
2023-05-19T00:08:58.873Z,0.00
2023-05-19T00:09:58.860Z,0.00
2023-05-19T00:10:58.879Z,0.00
2023-05-19T00:11:58.880Z,0.00
2023-05-19T00:12:58.858Z,0.00
2023-05-19T00:13:58.846Z,0.00
2023-05-19T00:14:58.840Z,0.00
2023-05-19T00:15:58.896Z,0.00
2023-05-19T00:16:58.835Z,0.00
2023-05-19T00:17:58.895Z,0.00
2023-05-19T00:18:58.851Z,0.00
2023-05-19T00:19:58.826Z,0.00
2023-05-19T00:20:58.824Z,0.00
2023-05-19T00:21:58.827Z,0.00
2023-05-19T00:22:58.813Z,0.00
2023-05-19T00:23:58.813Z,0.00
2023-05-19T00:24:58.805Z,0.00
2023-05-19T00:25:58.803Z,0.00
2023-05-19T00:26:58.824Z,0.00
2023-05-19T00:27:58.797Z,0.00
2023-05-19T00:28:58.790Z,0.00
2023-05-19T00:29:58.798Z,0.00
2023-05-19T00:30:58.792Z,0.00
2023-05-19T00:31:58.802Z,0.00
2023-05-19T00:32:58.840Z,0.00
2023-05-19T00:33:58.794Z,0.00
2023-05-19T00:34:58.773Z,0.00
2023-05-19T00:35:58.777Z,0.00
2023-05-19T00:36:58.766Z,0.00
2023-05-19T00:37:58.764Z,0.00
2023-05-19T00:38:58.778Z,0.00
2023-05-19T00:39:58.764Z,0.00
2023-05-19T00:40:58.761Z,0.00
2023-05-19T00:41:58.748Z,0.00
2023-05-19T00:42:58.770Z,0.00
2023-05-19T00:43:58.753Z,0.00
2023-05-19T00:44:58.744Z,0.00
2023-05-19T00:45:58.741Z,0.00
2023-05-19T00:46:58.813Z,0.00
2023-05-19T00:47:58.769Z,0.00
2023-05-19T00:48:58.729Z,0.00
2023-05-19T00:49:58.735Z,0.00
2023-05-19T00:50:58.725Z,0.00
2023-05-19T00:51:58.718Z,0.00
2023-05-19T00:52:58.711Z,0.00
2023-05-19T00:53:58.713Z,0.00
2023-05-19T00:54:58.708Z,0.00
2023-05-19T00:55:58.856Z,0.00
2023-05-19T00:56:58.704Z,0.00
2023-05-19T00:57:58.701Z,0.00
2023-05-19T00:58:58.728Z,0.00
2023-05-19T00:59:58.689Z,0.00
2023-05-19T01:00:58.720Z,0.00
2023-05-19T01:01:58.684Z,0.00
2023-05-19T01:02:58.743Z,0.00
2023-05-19T01:03:58.931Z,0.00
2023-05-19T01:04:58.673Z,0.00
2023-05-19T01:05:58.668Z,0.00
2023-05-19T01:06:58.665Z,0.00
2023-05-19T01:07:58.663Z,0.00
2023-05-19T01:08:58.659Z,0.00
2023-05-19T01:09:58.660Z,0.00
2023-05-19T01:10:58.654Z,0.00
2023-05-19T01:11:58.648Z,0.00
2023-05-19T01:12:58.647Z,0.00
2023-05-19T01:13:58.645Z,0.00
2023-05-19T01:14:58.661Z,0.00
2023-05-19T01:15:58.684Z,0.00
2023-05-19T01:16:58.656Z,0.00
2023-05-19T01:17:58.676Z,0.00
2023-05-19T01:18:58.654Z,0.00
2023-05-19T01:19:58.620Z,0.00
2023-05-19T01:20:58.619Z,0.00
2023-05-19T01:21:58.612Z,0.00
2023-05-19T01:22:58.610Z,0.00
2023-05-19T01:23:58.607Z,0.00
2023-05-19T01:24:58.604Z,0.00
2023-05-19T01:25:58.597Z,0.00
2023-05-19T01:26:58.604Z,0.00
2023-05-19T01:27:58.597Z,0.00
2023-05-19T01:28:58.590Z,0.00
2023-05-19T01:29:58.583Z,0.00
2023-05-19T01:30:58.636Z,0.00
2023-05-19T01:31:58.610Z,0.00
2023-05-19T01:32:58.652Z,0.00
2023-05-19T01:33:58.571Z,0.00
2023-05-19T01:34:58.575Z,0.00
2023-05-19T01:35:58.567Z,0.00
2023-05-19T01:36:58.565Z,0.00
2023-05-19T01:37:58.577Z,0.00
2023-05-19T01:38:58.554Z,0.00
2023-05-19T01:39:58.565Z,0.00
2023-05-19T01:40:58.546Z,0.00
2023-05-19T01:41:58.546Z,0.00
2023-05-19T01:42:58.547Z,0.00
2023-05-19T01:43:58.535Z,0.00
2023-05-19T01:44:58.543Z,0.00
2023-05-19T01:45:58.617Z,0.00
2023-05-19T01:46:58.663Z,0.00
2023-05-19T01:47:58.599Z,0.00
2023-05-19T01:48:58.524Z,0.00
2023-05-19T01:49:58.519Z,0.00
2023-05-19T01:50:58.514Z,0.00
2023-05-19T01:51:58.514Z,0.00
2023-05-19T01:52:58.512Z,0.00
2023-05-19T01:53:58.500Z,0.00
2023-05-19T01:54:58.498Z,0.00
2023-05-19T01:55:58.853Z,0.00
2023-05-19T01:56:58.489Z,0.00
2023-05-19T01:57:58.483Z,0.00
2023-05-19T01:58:58.493Z,0.00
2023-05-19T01:59:58.479Z,0.00
2023-05-19T02:00:58.520Z,0.00
2023-05-19T02:01:58.471Z,0.00
2023-05-19T02:02:58.526Z,0.00
2023-05-19T02:03:58.522Z,0.00
2023-05-19T02:04:58.479Z,0.00
2023-05-19T02:05:58.464Z,0.00
2023-05-19T02:06:58.473Z,0.00
2023-05-19T02:07:58.453Z,0.00
2023-05-19T02:08:58.454Z,0.00
2023-05-19T02:09:58.446Z,0.00
2023-05-19T02:10:58.437Z,0.00
2023-05-19T02:11:58.438Z,0.00
2023-05-19T02:12:58.431Z,0.00
2023-05-19T02:13:58.425Z,0.00
2023-05-19T02:14:58.431Z,0.00
2023-05-19T02:15:58.470Z,0.00
2023-05-19T02:16:58.416Z,0.00
2023-05-19T02:17:58.437Z,0.00
2023-05-19T02:18:58.471Z,0.00
2023-05-19T02:19:58.396Z,0.00
2023-05-19T02:20:58.406Z,0.00
2023-05-19T02:21:58.389Z,0.00
2023-05-19T02:22:58.764Z,0.00
2023-05-19T02:23:58.391Z,0.00
2023-05-19T02:24:58.382Z,0.00
2023-05-19T02:25:58.374Z,0.00
2023-05-19T02:26:58.384Z,0.00
2023-05-19T02:27:58.372Z,0.00
2023-05-19T02:28:58.362Z,0.00
2023-05-19T02:29:58.374Z,0.00
2023-05-19T02:30:58.364Z,0.00
2023-05-19T02:31:58.390Z,0.00
2023-05-19T02:32:58.360Z,0.00
2023-05-19T02:33:58.349Z,0.00
2023-05-19T02:34:58.375Z,0.00
2023-05-19T02:35:58.343Z,0.00
2023-05-19T02:36:58.337Z,0.00
2023-05-19T02:37:58.328Z,0.00
2023-05-19T02:38:58.329Z,0.00
2023-05-19T02:39:58.324Z,0.00
2023-05-19T02:40:58.322Z,0.00
2023-05-19T02:41:58.313Z,0.00
2023-05-19T02:42:58.330Z,0.00
2023-05-19T02:43:58.313Z,0.00
2023-05-19T02:44:58.313Z,0.00
2023-05-19T02:45:58.352Z,0.00
2023-05-19T02:46:58.296Z,0.00
2023-05-19T02:47:58.322Z,0.00
2023-05-19T02:48:58.290Z,0.00
2023-05-19T02:49:58.283Z,0.00
2023-05-19T02:50:58.324Z,0.00
2023-05-19T02:51:58.279Z,0.00
2023-05-19T02:52:58.287Z,0.00
2023-05-19T02:53:58.278Z,0.00
2023-05-19T02:54:58.264Z,0.00
2023-05-19T02:55:58.266Z,0.00
2023-05-19T02:56:58.259Z,0.00
2023-05-19T02:57:58.259Z,0.00
2023-05-19T02:58:58.254Z,0.00
2023-05-19T02:59:58.248Z,0.00
2023-05-19T03:00:58.242Z,0.00
2023-05-19T03:01:58.265Z,0.00
2023-05-19T03:02:58.363Z,0.00
2023-05-19T03:03:58.292Z,0.00
2023-05-19T03:04:58.231Z,0.00
2023-05-19T03:05:58.227Z,0.00
2023-05-19T03:06:58.245Z,0.00
2023-05-19T03:07:58.226Z,0.00
2023-05-19T03:08:58.214Z,0.00
2023-05-19T03:09:58.221Z,0.00
2023-05-19T03:10:58.201Z,0.00
2023-05-19T03:11:58.197Z,0.00
2023-05-19T03:12:58.195Z,0.00
2023-05-19T03:13:58.199Z,0.00
2023-05-19T03:14:58.195Z,0.00
2023-05-19T03:15:58.237Z,0.00
2023-05-19T03:16:58.252Z,0.00
2023-05-19T03:17:58.200Z,0.00
2023-05-19T03:18:58.217Z,0.00
2023-05-19T03:19:58.167Z,0.00
2023-05-19T03:20:58.166Z,0.00
2023-05-19T03:21:58.168Z,0.00
2023-05-19T03:22:58.191Z,0.00
2023-05-19T03:23:58.156Z,0.00
2023-05-19T03:24:58.154Z,0.00
2023-05-19T03:25:58.147Z,0.00
2023-05-19T03:26:58.170Z,0.00
2023-05-19T03:27:58.139Z,4.00
2023-05-19T03:28:58.135Z,0.00
2023-05-19T03:29:58.129Z,0.00
2023-05-19T03:30:58.131Z,0.00
2023-05-19T03:31:58.131Z,0.00
2023-05-19T03:32:58.164Z,0.00
2023-05-19T03:33:58.112Z,4.00
2023-05-19T03:34:58.144Z,0.00
2023-05-19T03:35:58.113Z,0.00
2023-05-19T03:36:58.122Z,0.00
2023-05-19T03:37:58.101Z,0.00
2023-05-19T03:38:58.115Z,4.00
2023-05-19T03:39:58.100Z,0.00
2023-05-19T03:40:58.093Z,0.00
2023-05-19T03:41:58.090Z,4.00
2023-05-19T03:42:58.086Z,0.00
2023-05-19T03:43:58.090Z,4.00
2023-05-19T03:44:58.076Z,4.00
2023-05-19T03:45:58.111Z,0.00
2023-05-19T03:46:58.072Z,4.00
2023-05-19T03:47:58.110Z,4.00
2023-05-19T03:48:58.065Z,0.00
2023-05-19T03:49:58.054Z,4.00
2023-05-19T03:50:58.050Z,4.00
2023-05-19T03:51:58.045Z,4.00
2023-05-19T03:52:58.042Z,4.00
2023-05-19T03:53:58.043Z,4.00
2023-05-19T03:54:58.065Z,4.00
2023-05-19T03:55:58.030Z,4.00
2023-05-19T03:56:58.026Z,4.00
2023-05-19T03:57:58.019Z,4.00
2023-05-19T03:58:58.057Z,8.00
2023-05-19T03:59:58.017Z,4.00
2023-05-19T04:00:58.367Z,8.00
2023-05-19T04:01:58.110Z,8.00
2023-05-19T04:02:58.068Z,4.00
2023-05-19T04:03:58.072Z,8.00
2023-05-19T04:04:58.030Z,8.00
2023-05-19T04:05:57.991Z,8.00
2023-05-19T04:06:58.023Z,8.00
2023-05-19T04:07:57.981Z,8.00
2023-05-19T04:08:57.980Z,8.00
2023-05-19T04:09:57.981Z,8.00
2023-05-19T04:10:58.004Z,8.00
2023-05-19T04:11:57.972Z,12.00
2023-05-19T04:12:57.965Z,8.00
2023-05-19T04:13:57.964Z,8.00
2023-05-19T04:14:57.961Z,12.00
2023-05-19T04:15:58.026Z,8.00
2023-05-19T04:16:57.949Z,12.00
2023-05-19T04:17:57.997Z,8.00
2023-05-19T04:18:58.070Z,12.00
2023-05-19T04:19:57.933Z,12.00
2023-05-19T04:20:57.932Z,12.00
2023-05-19T04:21:57.925Z,12.00
2023-05-19T04:22:57.923Z,16.00
2023-05-19T04:23:57.928Z,12.00
2023-05-19T04:24:57.915Z,12.00
2023-05-19T04:25:57.919Z,12.00
2023-05-19T04:26:57.930Z,16.00
2023-05-19T04:27:57.984Z,16.00
2023-05-19T04:28:57.901Z,16.00
2023-05-19T04:29:57.904Z,16.00
2023-05-19T04:30:57.938Z,16.00
2023-05-19T04:31:57.890Z,16.00
2023-05-19T04:32:57.914Z,20.00
2023-05-19T04:33:57.883Z,16.00
2023-05-19T04:34:57.880Z,20.00
2023-05-19T04:35:57.873Z,24.00
2023-05-19T04:36:57.877Z,24.00
2023-05-19T04:37:57.868Z,28.00
2023-05-19T04:38:57.865Z,36.00
2023-05-19T04:39:57.863Z,44.00
2023-05-19T04:40:57.857Z,52.00
2023-05-19T04:41:57.851Z,64.00
2023-05-19T04:42:57.884Z,68.00
2023-05-19T04:43:57.850Z,80.00
2023-05-19T04:44:57.840Z,84.00
2023-05-19T04:45:57.839Z,84.00
2023-05-19T04:46:57.914Z,88.00
2023-05-19T04:47:57.896Z,88.00
2023-05-19T04:48:57.842Z,88.00
2023-05-19T04:49:57.819Z,88.00
2023-05-19T04:50:57.829Z,88.00
2023-05-19T04:51:57.820Z,84.00
2023-05-19T04:52:57.815Z,80.00
2023-05-19T04:53:57.834Z,80.00
2023-05-19T04:54:57.806Z,68.00
2023-05-19T04:55:57.806Z,64.00
2023-05-19T04:56:57.803Z,56.00
2023-05-19T04:57:57.801Z,48.00
2023-05-19T04:58:57.821Z,48.00
2023-05-19T04:59:57.810Z,44.00
2023-05-19T05:00:57.785Z,44.00
2023-05-19T05:01:57.877Z,44.00
2023-05-19T05:02:57.880Z,44.00
2023-05-19T05:03:57.843Z,52.00
2023-05-19T05:04:57.779Z,52.00
2023-05-19T05:05:57.960Z,56.00
2023-05-19T05:06:57.764Z,64.00
2023-05-19T05:07:57.754Z,76.00
2023-05-19T05:08:57.755Z,84.00
2023-05-19T05:09:57.750Z,88.00
2023-05-19T05:10:57.738Z,96.00
2023-05-19T05:11:57.749Z,100.00
2023-05-19T05:12:57.764Z,104.00
2023-05-19T05:13:57.739Z,100.00
2023-05-19T05:14:57.799Z,100.00
2023-05-19T05:15:57.797Z,92.00
2023-05-19T05:16:57.739Z,92.00
2023-05-19T05:17:57.810Z,80.00
2023-05-19T05:18:57.782Z,72.00
2023-05-19T05:19:57.717Z,68.00
2023-05-19T05:20:57.713Z,64.00
2023-05-19T05:21:57.728Z,60.00
2023-05-19T05:22:57.700Z,56.00
2023-05-19T05:23:57.707Z,60.00
2023-05-19T05:24:57.703Z,64.00
2023-05-19T05:25:57.696Z,68.00
2023-05-19T05:26:57.684Z,72.00
2023-05-19T05:27:57.689Z,64.00
2023-05-19T05:28:57.695Z,64.00
2023-05-19T05:29:59.266Z,60.00
2023-05-19T05:30:57.791Z,68.00
2023-05-19T05:31:57.898Z,76.00
2023-05-19T05:32:57.725Z,72.00
2023-05-19T05:33:57.685Z,80.00
2023-05-19T05:34:57.664Z,88.00
2023-05-19T05:35:57.657Z,96.00
2023-05-19T05:36:57.648Z,100.00
2023-05-19T05:37:57.664Z,100.00
2023-05-19T05:38:57.643Z,108.00
2023-05-19T05:39:57.652Z,112.00
2023-05-19T05:40:57.630Z,116.00
2023-05-19T05:41:57.633Z,120.00
2023-05-19T05:42:57.629Z,124.00
2023-05-19T05:43:57.626Z,132.00
2023-05-19T05:44:57.620Z,132.00
2023-05-19T05:45:57.637Z,132.00
2023-05-19T05:46:57.743Z,128.00
2023-05-19T05:47:57.623Z,128.00
2023-05-19T05:48:57.609Z,124.00
2023-05-19T05:49:57.610Z,120.00
2023-05-19T05:50:57.604Z,116.00
2023-05-19T05:52:05.808Z,120.00
2023-05-19T05:52:57.594Z,120.00
2023-05-19T05:53:57.591Z,116.00
2023-05-19T05:54:57.589Z,116.00
2023-05-19T05:55:57.591Z,116.00
2023-05-19T05:56:57.584Z,116.00
2023-05-19T05:57:57.612Z,116.00
2023-05-19T05:58:57.577Z,116.00
2023-05-19T05:59:57.589Z,116.00
2023-05-19T06:00:57.591Z,116.00
2023-05-19T06:01:57.615Z,120.00
2023-05-19T06:02:57.766Z,124.00
2023-05-19T06:03:57.565Z,120.00
2023-05-19T06:04:57.599Z,116.00
2023-05-19T06:05:57.905Z,120.00
2023-05-19T06:06:57.551Z,112.00
2023-05-19T06:07:57.557Z,116.00
2023-05-19T06:08:57.546Z,116.00
2023-05-19T06:09:57.544Z,116.00
2023-05-19T06:10:57.540Z,112.00
2023-05-19T06:11:57.549Z,112.00
2023-05-19T06:12:57.532Z,112.00
2023-05-19T06:13:57.534Z,116.00
2023-05-19T06:14:57.564Z,116.00
2023-05-19T06:15:58.473Z,112.00
2023-05-19T06:16:57.523Z,112.00
2023-05-19T06:17:57.548Z,88.00
2023-05-19T06:18:57.713Z,112.00
2023-05-19T06:19:57.512Z,120.00
2023-05-19T06:20:57.509Z,116.00
2023-05-19T06:21:57.513Z,116.00
2023-05-19T06:22:57.506Z,116.00
2023-05-19T06:23:57.509Z,116.00
2023-05-19T06:24:57.501Z,120.00
2023-05-19T06:25:57.495Z,124.00
2023-05-19T06:26:57.500Z,124.00
2023-05-19T06:27:57.506Z,116.00
2023-05-19T06:28:57.492Z,120.00
2023-05-19T06:29:57.484Z,120.00
2023-05-19T06:30:57.516Z,116.00
2023-05-19T06:31:57.519Z,116.00
2023-05-19T06:32:57.537Z,120.00
2023-05-19T06:33:57.469Z,124.00
2023-05-19T06:34:57.497Z,124.00
2023-05-19T06:35:57.471Z,128.00
2023-05-19T06:36:57.460Z,124.00
2023-05-19T06:37:57.471Z,124.00
2023-05-19T06:38:57.454Z,124.00
2023-05-19T06:39:57.463Z,124.00
2023-05-19T06:40:57.446Z,128.00
2023-05-19T06:41:57.457Z,128.00
2023-05-19T06:42:57.457Z,132.00
2023-05-19T06:43:57.438Z,132.00
2023-05-19T06:44:57.443Z,140.00
2023-05-19T06:45:57.446Z,144.00
2023-05-19T06:46:57.476Z,144.00
2023-05-19T06:47:57.456Z,148.00
2023-05-19T06:48:57.424Z,140.00
2023-05-19T06:49:57.429Z,136.00
2023-05-19T06:50:57.448Z,136.00
2023-05-19T06:51:57.420Z,140.00
2023-05-19T06:52:57.419Z,132.00
2023-05-19T06:53:57.413Z,164.00
2023-05-19T06:54:57.406Z,140.00
2023-05-19T06:55:59.541Z,132.00
2023-05-19T06:56:57.400Z,136.00
2023-05-19T06:57:57.406Z,136.00
2023-05-19T06:58:57.402Z,152.00
2023-05-19T06:59:57.401Z,156.00
2023-05-19T07:00:57.395Z,144.00
2023-05-19T07:01:57.451Z,132.00
2023-05-19T07:02:57.455Z,140.00
2023-05-19T07:03:57.535Z,132.00
2023-05-19T07:04:57.397Z,132.00
2023-05-19T07:05:57.832Z,136.00
2023-05-19T07:06:57.397Z,136.00
2023-05-19T07:07:57.379Z,136.00
2023-05-19T07:08:57.367Z,132.00
2023-05-19T07:09:57.367Z,132.00
2023-05-19T07:10:57.365Z,132.00
2023-05-19T07:11:57.371Z,128.00
2023-05-19T07:12:57.361Z,132.00
2023-05-19T07:13:57.357Z,136.00
2023-05-19T07:14:57.355Z,136.00
2023-05-19T07:15:57.370Z,136.00
2023-05-19T07:16:57.352Z,136.00
2023-05-19T07:17:57.366Z,140.00
2023-05-19T07:18:57.464Z,144.00
2023-05-19T07:19:57.346Z,144.00
2023-05-19T07:20:57.349Z,144.00
2023-05-19T07:21:57.340Z,148.00
2023-05-19T07:22:57.385Z,144.00
2023-05-19T07:23:57.332Z,152.00
2023-05-19T07:24:57.347Z,160.00
2023-05-19T07:25:57.328Z,156.00
2023-05-19T07:26:57.336Z,160.00
2023-05-19T07:27:57.334Z,160.00
2023-05-19T07:28:57.320Z,148.00
2023-05-19T07:29:57.316Z,164.00
2023-05-19T07:30:57.317Z,172.00
2023-05-19T07:31:57.384Z,176.00
2023-05-19T07:32:57.335Z,192.00
2023-05-19T07:33:57.375Z,184.00
2023-05-19T07:34:57.317Z,192.00
2023-05-19T07:35:57.301Z,192.00
2023-05-19T07:36:57.296Z,200.00
2023-05-19T07:37:57.293Z,208.00
2023-05-19T07:38:57.364Z,208.00
2023-05-19T07:39:57.300Z,192.00
2023-05-19T07:40:57.288Z,200.00
2023-05-19T07:41:57.287Z,232.00
2023-05-19T07:42:57.277Z,240.00
2023-05-19T07:43:57.286Z,236.00
2023-05-19T07:44:57.275Z,260.00
2023-05-19T07:45:57.307Z,256.00
2023-05-19T07:46:57.271Z,276.00
2023-05-19T07:47:57.380Z,280.00
2023-05-19T07:48:57.265Z,304.00
2023-05-19T07:49:57.265Z,296.00
2023-05-19T07:50:57.276Z,368.00
2023-05-19T07:51:57.260Z,296.00
2023-05-19T07:52:57.256Z,300.00
2023-05-19T07:53:57.254Z,304.00
2023-05-19T07:54:57.276Z,320.00
2023-05-19T07:55:58.650Z,320.00
2023-05-19T07:56:57.244Z,328.00
2023-05-19T07:57:57.264Z,340.00
2023-05-19T07:58:57.244Z,348.00
2023-05-19T07:59:57.246Z,364.00
2023-05-19T08:00:57.236Z,388.00
2023-05-19T08:01:57.240Z,384.00
2023-05-19T08:02:57.374Z,388.00
2023-05-19T08:03:57.278Z,404.00
2023-05-19T08:04:57.311Z,412.00
2023-05-19T08:05:57.243Z,704.00
2023-05-19T08:06:57.222Z,448.00
2023-05-19T08:07:57.227Z,464.00
2023-05-19T08:08:57.223Z,488.00
2023-05-19T08:09:57.228Z,500.00
2023-05-19T08:10:57.661Z,492.00
2023-05-19T08:11:57.214Z,524.00
2023-05-19T08:12:57.211Z,484.00
2023-05-19T08:13:57.212Z,520.00
2023-05-19T08:14:58.968Z,568.00
2023-05-19T08:15:57.248Z,568.00
2023-05-19T08:16:57.209Z,564.00
2023-05-19T08:17:57.236Z,560.00
2023-05-19T08:18:57.254Z,600.00
2023-05-19T08:19:57.198Z,712.00
2023-05-19T08:20:57.204Z,672.00
2023-05-19T08:21:57.199Z,888.00
2023-05-19T08:22:57.199Z,824.00
2023-05-19T08:23:57.269Z,652.00
2023-05-19T08:24:57.189Z,688.00
2023-05-19T08:25:57.193Z,648.00
2023-05-19T08:26:57.287Z,776.00
2023-05-19T08:27:57.195Z,772.00
2023-05-19T08:28:57.189Z,724.00
2023-05-19T08:29:57.186Z,676.00
2023-05-19T08:30:57.236Z,772.00
2023-05-19T08:31:57.247Z,1360.00
2023-05-19T08:32:57.214Z,876.00
2023-05-19T08:33:57.176Z,936.00
2023-05-19T08:34:57.185Z,972.00
2023-05-19T08:35:57.178Z,1052.00
2023-05-19T08:36:57.172Z,1056.00
2023-05-19T08:37:57.170Z,1160.00
2023-05-19T08:38:57.170Z,1268.00
2023-05-19T08:39:57.174Z,1240.00
2023-05-19T08:40:57.168Z,1232.00
2023-05-19T08:41:57.168Z,1500.00
2023-05-19T08:42:57.190Z,1760.00
2023-05-19T08:43:57.162Z,1764.00
2023-05-19T08:44:57.164Z,1924.00
2023-05-19T08:45:57.156Z,1700.00
2023-05-19T08:46:57.192Z,1836.00
2023-05-19T08:47:57.221Z,1688.00
2023-05-19T08:48:57.159Z,1460.00
2023-05-19T08:49:57.155Z,1292.00
2023-05-19T08:50:57.149Z,868.00
2023-05-19T08:51:57.151Z,716.00
2023-05-19T08:52:57.150Z,648.00
2023-05-19T08:53:57.150Z,604.00
2023-05-19T08:54:57.151Z,536.00
2023-05-19T08:55:57.144Z,484.00
2023-05-19T08:56:57.133Z,432.00
2023-05-19T08:57:57.136Z,440.00
2023-05-19T08:58:57.269Z,280.00
2023-05-19T08:59:57.138Z,364.00
2023-05-19T09:00:57.203Z,144.00
2023-05-19T09:01:57.127Z,168.00
2023-05-19T09:03:05.958Z,152.00
2023-05-19T09:03:57.179Z,144.00
2023-05-19T09:04:57.189Z,220.00
2023-05-19T09:05:57.127Z,140.00
2023-05-19T09:06:57.119Z,152.00
2023-05-19T09:07:57.127Z,104.00
2023-05-19T09:08:57.113Z,164.00
2023-05-19T09:09:57.116Z,120.00
2023-05-19T09:10:57.263Z,124.00
2023-05-19T09:11:57.113Z,100.00
2023-05-19T09:12:57.135Z,88.00
2023-05-19T09:13:57.105Z,88.00
2023-05-19T09:14:57.220Z,80.00
2023-05-19T09:15:57.112Z,96.00
2023-05-19T09:16:57.156Z,60.00
2023-05-19T09:17:57.151Z,80.00
2023-05-19T09:18:57.156Z,128.00
2023-05-19T09:19:57.100Z,112.00
2023-05-19T09:20:57.098Z,84.00
2023-05-19T09:21:57.091Z,72.00
2023-05-19T09:22:57.089Z,68.00
2023-05-19T09:23:57.089Z,68.00
2023-05-19T09:24:57.085Z,64.00
2023-05-19T09:25:57.095Z,64.00
2023-05-19T09:26:58.010Z,64.00
2023-05-19T09:27:57.084Z,64.00
2023-05-19T09:28:57.078Z,64.00
2023-05-19T09:29:57.074Z,64.00
2023-05-19T09:30:57.104Z,68.00
2023-05-19T09:31:57.147Z,60.00
2023-05-19T09:32:57.123Z,56.00
2023-05-19T09:33:57.069Z,64.00
2023-05-19T09:34:57.088Z,64.00
2023-05-19T09:35:57.097Z,72.00
2023-05-19T09:36:57.065Z,80.00
2023-05-19T09:37:57.058Z,96.00
2023-05-19T09:38:57.062Z,64.00
2023-05-19T09:39:57.058Z,64.00
2023-05-19T09:40:57.069Z,68.00
2023-05-19T09:41:57.056Z,68.00
2023-05-19T09:42:57.054Z,72.00
2023-05-19T09:43:57.051Z,68.00
2023-05-19T09:44:57.049Z,68.00
2023-05-19T09:45:57.086Z,68.00
2023-05-19T09:46:57.083Z,72.00
2023-05-19T09:47:57.071Z,64.00
2023-05-19T09:48:57.045Z,60.00
2023-05-19T09:49:57.040Z,60.00
2023-05-19T09:50:57.040Z,44.00
2023-05-19T09:51:57.048Z,48.00
2023-05-19T09:52:57.034Z,60.00
2023-05-19T09:53:57.031Z,68.00
2023-05-19T09:54:57.045Z,104.00
2023-05-19T09:55:57.025Z,56.00
2023-05-19T09:56:57.026Z,52.00
2023-05-19T09:57:57.070Z,52.00
2023-05-19T09:58:57.023Z,52.00
2023-05-19T09:59:57.023Z,64.00
2023-05-19T10:00:57.089Z,56.00
2023-05-19T10:01:57.083Z,60.00
2023-05-19T10:02:57.058Z,68.00
2023-05-19T10:03:57.021Z,72.00
2023-05-19T10:04:57.089Z,68.00
2023-05-19T10:05:57.013Z,76.00
2023-05-19T10:06:57.012Z,80.00
2023-05-19T10:07:57.012Z,80.00
2023-05-19T10:08:57.010Z,60.00
2023-05-19T10:09:58.602Z,64.00
2023-05-19T10:10:57.006Z,60.00
2023-05-19T10:11:57.005Z,52.00
2023-05-19T10:12:56.999Z,52.00
2023-05-19T10:13:57.023Z,64.00
2023-05-19T10:14:56.996Z,48.00
2023-05-19T10:15:59.450Z,52.00
2023-05-19T10:16:57.094Z,52.00
2023-05-19T10:17:57.001Z,48.00
2023-05-19T10:18:57.119Z,52.00
2023-05-19T10:19:56.983Z,56.00
2023-05-19T10:20:56.989Z,56.00
2023-05-19T10:21:57.036Z,60.00
2023-05-19T10:22:56.982Z,60.00
2023-05-19T10:23:56.977Z,52.00
2023-05-19T10:24:56.978Z,52.00
2023-05-19T10:25:57.014Z,56.00
2023-05-19T10:26:56.978Z,48.00
2023-05-19T10:27:56.976Z,56.00
2023-05-19T10:28:56.971Z,56.00
2023-05-19T10:29:56.971Z,60.00
2023-05-19T10:30:56.979Z,56.00
2023-05-19T10:31:57.017Z,68.00
2023-05-19T10:32:56.981Z,80.00
2023-05-19T10:33:56.975Z,44.00
2023-05-19T10:34:56.993Z,44.00
2023-05-19T10:35:56.959Z,40.00
2023-05-19T10:36:56.958Z,52.00
2023-05-19T10:37:56.955Z,52.00
2023-05-19T10:38:56.954Z,60.00
2023-05-19T10:39:56.954Z,52.00
2023-05-19T10:40:56.959Z,52.00
2023-05-19T10:41:56.950Z,40.00
2023-05-19T10:42:56.948Z,40.00
2023-05-19T10:43:56.948Z,44.00
2023-05-19T10:44:56.960Z,44.00
2023-05-19T10:45:56.952Z,40.00
2023-05-19T10:46:57.278Z,56.00
2023-05-19T10:47:57.022Z,64.00
2023-05-19T10:48:56.985Z,48.00
2023-05-19T10:49:56.941Z,40.00
2023-05-19T10:50:57.063Z,52.00
2023-05-19T10:51:56.938Z,68.00
2023-05-19T10:52:56.939Z,44.00
2023-05-19T10:53:56.940Z,40.00
2023-05-19T10:54:56.933Z,40.00
2023-05-19T10:55:56.946Z,44.00
2023-05-19T10:56:56.926Z,56.00
2023-05-19T10:57:57.141Z,40.00
2023-05-19T10:58:57.037Z,36.00
2023-05-19T10:59:56.927Z,44.00
2023-05-19T11:00:56.930Z,40.00
2023-05-19T11:01:57.160Z,36.00
2023-05-19T11:02:56.927Z,40.00
2023-05-19T11:03:56.978Z,40.00
2023-05-19T11:04:56.915Z,40.00
2023-05-19T11:05:56.913Z,40.00
2023-05-19T11:06:56.940Z,68.00
2023-05-19T11:07:56.911Z,52.00
2023-05-19T11:08:56.918Z,48.00
2023-05-19T11:09:56.909Z,40.00
2023-05-19T11:10:56.907Z,40.00
2023-05-19T11:11:56.906Z,40.00
2023-05-19T11:13:56.938Z,40.00
2023-05-19T11:14:56.909Z,40.00
2023-05-19T11:15:56.905Z,40.00
2023-05-19T11:16:57.021Z,40.00
2023-05-19T11:17:56.981Z,40.00
2023-05-19T11:18:56.948Z,48.00
2023-05-19T11:19:56.911Z,48.00
2023-05-19T11:20:57.246Z,44.00
2023-05-19T11:21:56.884Z,40.00
2023-05-19T11:22:57.082Z,40.00
2023-05-19T11:23:56.980Z,44.00
2023-05-19T11:24:56.884Z,44.00
2023-05-19T11:25:56.897Z,40.00
2023-05-19T11:26:56.878Z,40.00
2023-05-19T11:27:56.878Z,48.00
2023-05-19T11:28:56.880Z,60.00
2023-05-19T11:29:56.871Z,44.00
2023-05-19T11:30:56.881Z,56.00
2023-05-19T11:31:56.878Z,48.00
2023-05-19T11:32:56.981Z,40.00
2023-05-19T11:33:56.875Z,40.00
2023-05-19T11:34:56.866Z,40.00
2023-05-19T11:35:56.862Z,40.00
2023-05-19T11:36:56.881Z,60.00
2023-05-19T11:37:56.877Z,56.00
2023-05-19T11:38:56.939Z,60.00
2023-05-19T11:39:56.859Z,40.00
2023-05-19T11:40:56.869Z,40.00
2023-05-19T11:41:56.854Z,40.00
2023-05-19T11:42:56.852Z,44.00
2023-05-19T11:43:56.857Z,40.00
2023-05-19T11:44:56.857Z,36.00
2023-05-19T11:45:56.938Z,36.00
2023-05-19T11:46:56.880Z,36.00
2023-05-19T11:48:02.691Z,36.00
2023-05-19T11:48:56.847Z,40.00
2023-05-19T11:49:56.839Z,44.00
2023-05-19T11:50:56.879Z,40.00
2023-05-19T11:51:56.857Z,44.00
2023-05-19T11:52:56.839Z,44.00
2023-05-19T11:53:56.834Z,48.00
2023-05-19T11:54:56.876Z,36.00
2023-05-19T11:55:56.828Z,36.00
2023-05-19T11:56:56.830Z,32.00
2023-05-19T11:58:56.828Z,36.00
2023-05-19T11:59:56.829Z,36.00
2023-05-19T12:00:56.850Z,32.00
2023-05-19T12:01:56.835Z,36.00
2023-05-19T12:02:56.886Z,36.00
2023-05-19T12:03:56.987Z,36.00
2023-05-19T12:04:56.844Z,40.00
2023-05-19T12:05:56.838Z,44.00
2023-05-19T12:06:56.815Z,44.00
2023-05-19T12:07:56.823Z,48.00
2023-05-19T12:08:56.812Z,40.00
2023-05-19T12:09:56.809Z,40.00
2023-05-19T12:10:56.857Z,36.00
2023-05-19T12:11:56.810Z,36.00
2023-05-19T12:12:56.809Z,36.00
2023-05-19T12:13:56.819Z,36.00
2023-05-19T12:14:56.808Z,36.00
2023-05-19T12:15:56.832Z,64.00
2023-05-19T12:16:56.817Z,44.00
2023-05-19T12:17:56.841Z,40.00
2023-05-19T12:18:56.822Z,40.00
2023-05-19T12:19:56.795Z,52.00
2023-05-19T12:20:56.807Z,36.00
2023-05-19T12:21:56.799Z,40.00
2023-05-19T12:22:56.794Z,40.00
2023-05-19T12:23:56.797Z,40.00
2023-05-19T12:24:56.800Z,40.00
2023-05-19T12:25:57.238Z,36.00
2023-05-19T12:26:56.810Z,44.00
2023-05-19T12:27:57.500Z,40.00
2023-05-19T12:28:56.808Z,36.00
2023-05-19T12:29:56.789Z,36.00
2023-05-19T12:30:56.781Z,36.00
2023-05-19T12:31:56.844Z,40.00
2023-05-19T12:32:56.797Z,36.00
2023-05-19T12:33:56.778Z,36.00
2023-05-19T12:34:56.780Z,40.00
2023-05-19T12:35:56.778Z,48.00
2023-05-19T12:36:56.784Z,36.00
2023-05-19T12:37:56.776Z,36.00
2023-05-19T12:38:56.792Z,44.00
2023-05-19T12:39:56.786Z,36.00
2023-05-19T12:40:56.782Z,40.00
2023-05-19T12:41:56.766Z,40.00
2023-05-19T12:42:56.926Z,36.00
2023-05-19T12:43:56.760Z,36.00
2023-05-19T12:44:56.768Z,36.00
2023-05-19T12:45:56.837Z,32.00
2023-05-19T12:46:56.764Z,32.00
2023-05-19T12:47:56.984Z,36.00
2023-05-19T12:48:56.760Z,32.00
2023-05-19T12:49:56.760Z,36.00
2023-05-19T12:50:56.752Z,32.00
2023-05-19T12:51:56.756Z,32.00
2023-05-19T12:52:56.755Z,32.00
2023-05-19T12:53:56.755Z,32.00
2023-05-19T12:54:56.797Z,36.00
2023-05-19T12:55:56.756Z,32.00